createdAt,value
2022-11-09T00:01:39.083Z,11.65
2022-11-09T00:04:06.776Z,11.58
2022-11-09T00:06:34.613Z,11.54
2022-11-09T00:09:07.446Z,11.38
2022-11-09T00:11:36.299Z,11.22
2022-11-09T00:14:02.885Z,11.29
2022-11-09T00:16:29.185Z,11.22
2022-11-09T00:18:55.930Z,11.15
2022-11-09T00:21:24.234Z,11.23
2022-11-09T00:23:51.289Z,11.27
2022-11-09T00:26:19.259Z,11.23
2022-11-09T00:28:45.927Z,11.23
2022-11-09T00:31:16.147Z,11.19
2022-11-09T00:33:42.475Z,11.26
2022-11-09T00:36:14.019Z,11.26
2022-11-09T00:38:40.899Z,11.21
2022-11-09T00:41:09.185Z,11.29
2022-11-09T00:43:36.118Z,11.25
2022-11-09T00:46:03.106Z,11.18
2022-11-09T00:48:29.947Z,11.15
2022-11-09T00:50:57.625Z,11.17
2022-11-09T00:53:25.358Z,11.09
2022-11-09T00:56:00.576Z,11.01
2022-11-09T00:58:29.523Z,11.05
2022-11-09T01:00:57.625Z,11.04
2022-11-09T01:06:53.361Z,11.07
2022-11-09T01:09:19.704Z,11.11
2022-11-09T01:11:46.031Z,11.11
2022-11-09T01:14:12.339Z,11.25
2022-11-09T01:16:39.035Z,11.19
2022-11-09T01:19:05.774Z,11.27
2022-11-09T01:21:32.391Z,11.27
2022-11-09T01:23:59.086Z,11.25
2022-11-09T01:26:25.438Z,11.22
2022-11-09T01:28:51.780Z,11.19
2022-11-09T01:31:20.167Z,11.20
2022-11-09T01:33:46.905Z,11.18
2022-11-09T01:36:16.370Z,11.19
2022-11-09T01:38:43.516Z,11.24
2022-11-09T01:41:14.824Z,11.26
2022-11-09T01:43:41.244Z,11.24
2022-11-09T01:46:20.544Z,11.27
2022-11-09T01:48:50.012Z,11.30
2022-11-09T01:51:23.816Z,11.30
2022-11-09T01:53:54.960Z,11.24
2022-11-09T01:56:21.443Z,11.32
2022-11-09T01:58:55.305Z,11.36
2022-11-09T02:01:21.884Z,11.39
2022-11-09T02:04:20.091Z,11.38
2022-11-09T02:06:47.364Z,11.47
2022-11-09T02:09:26.539Z,11.45
2022-11-09T02:11:53.060Z,11.44
2022-11-09T02:14:21.824Z,11.51
2022-11-09T02:16:48.625Z,11.52
2022-11-09T02:19:14.983Z,11.54
2022-11-09T02:21:41.511Z,11.54
2022-11-09T02:24:07.970Z,11.53
2022-11-09T02:26:43.532Z,11.52
2022-11-09T02:29:13.381Z,11.54
2022-11-09T02:31:45.275Z,11.52
2022-11-09T02:34:15.164Z,11.54
2022-11-09T02:36:43.440Z,11.55
2022-11-09T02:39:10.810Z,11.63
2022-11-09T02:41:54.419Z,11.61
2022-11-09T02:44:20.897Z,11.64
2022-11-09T02:46:47.240Z,11.63
2022-11-09T02:49:13.577Z,11.63
2022-11-09T02:51:39.887Z,11.71
2022-11-09T02:54:06.271Z,11.76
2022-11-09T02:56:32.634Z,11.87
2022-11-09T02:58:58.938Z,11.89
2022-11-09T03:01:25.397Z,11.92
2022-11-09T03:03:51.741Z,11.91
2022-11-09T03:06:18.075Z,11.94
2022-11-09T03:08:44.394Z,11.89
2022-11-09T03:11:10.737Z,11.89
2022-11-09T03:13:37.316Z,11.85
2022-11-09T03:16:05.863Z,11.91
2022-11-09T03:18:32.211Z,11.96
2022-11-09T03:21:03.391Z,11.95
2022-11-09T03:23:30.125Z,11.96
2022-11-09T03:25:56.530Z,11.99
2022-11-09T03:28:22.873Z,11.97
2022-11-09T03:30:49.271Z,11.94
2022-11-09T03:33:15.587Z,11.92
2022-11-09T03:35:43.631Z,11.93
2022-11-09T03:38:10.127Z,11.89
2022-11-09T03:40:36.468Z,11.92
2022-11-09T03:43:02.869Z,11.91
2022-11-09T03:45:29.210Z,11.92
2022-11-09T03:48:00.358Z,11.90
2022-11-09T03:50:33.023Z,11.96
2022-11-09T03:53:01.845Z,11.93
2022-11-09T03:55:28.716Z,11.92
2022-11-09T03:57:55.352Z,11.92
2022-11-09T04:00:22.984Z,11.89
2022-11-09T04:02:49.826Z,11.91
2022-11-09T04:05:16.249Z,11.95
2022-11-09T04:07:50.742Z,11.88
2022-11-09T04:10:17.342Z,11.93
2022-11-09T04:12:44.443Z,11.91
2022-11-09T04:15:11.798Z,11.92
2022-11-09T04:17:38.716Z,11.91
2022-11-09T04:20:07.446Z,11.83
2022-11-09T04:22:34.335Z,11.86
2022-11-09T04:25:00.923Z,11.84
2022-11-09T04:27:27.288Z,11.83
2022-11-09T04:29:53.694Z,11.82
2022-11-09T04:32:20.031Z,11.76
2022-11-09T04:34:46.371Z,11.77
2022-11-09T04:37:12.671Z,11.73
2022-11-09T04:39:39.004Z,11.80
2022-11-09T04:42:05.455Z,11.74
2022-11-09T04:44:31.897Z,11.70
2022-11-09T04:46:58.203Z,11.70
2022-11-09T04:49:24.717Z,11.76
2022-11-09T04:51:51.107Z,11.70
2022-11-09T04:54:17.411Z,11.71
2022-11-09T04:56:43.740Z,11.72
2022-11-09T04:59:10.063Z,11.71
2022-11-09T05:01:36.339Z,11.73
2022-11-09T05:04:02.734Z,11.71
2022-11-09T05:06:32.141Z,11.67
2022-11-09T05:09:07.012Z,11.64
2022-11-09T05:11:35.210Z,11.65
2022-11-09T05:14:02.070Z,11.62
2022-11-09T05:16:29.294Z,11.58
2022-11-09T05:18:55.796Z,11.61
2022-11-09T05:21:22.175Z,11.58
2022-11-09T05:24:00.694Z,11.59
2022-11-09T05:26:35.847Z,11.56
2022-11-09T05:29:04.872Z,11.57
2022-11-09T05:31:31.337Z,11.64
2022-11-09T05:33:59.254Z,11.67
2022-11-09T05:36:27.713Z,11.62
2022-11-09T05:38:54.698Z,11.58
2022-11-09T05:41:21.271Z,11.58
2022-11-09T05:43:48.141Z,11.61
2022-11-09T05:46:15.500Z,11.63
2022-11-09T05:48:43.114Z,11.64
2022-11-09T05:51:12.619Z,11.62
2022-11-09T05:53:42.401Z,11.62
2022-11-09T05:56:13.434Z,11.59
2022-11-09T05:58:41.172Z,11.63
2022-11-09T06:01:18.948Z,11.57
2022-11-09T06:03:45.364Z,11.63
2022-11-09T06:06:14.122Z,11.54
2022-11-09T06:08:40.793Z,11.56
2022-11-09T06:11:09.823Z,11.57
2022-11-09T06:13:36.763Z,11.60
2022-11-09T06:16:05.235Z,11.67
2022-11-09T06:18:33.062Z,11.62
2022-11-09T06:21:01.929Z,11.64
2022-11-09T06:23:29.325Z,11.63
2022-11-09T06:25:57.929Z,11.64
2022-11-09T06:28:24.249Z,11.65
2022-11-09T06:30:50.549Z,11.65
2022-11-09T06:33:17.046Z,11.66
2022-11-09T06:35:43.562Z,11.65
2022-11-09T06:38:11.430Z,11.62
2022-11-09T06:40:37.885Z,11.62
2022-11-09T06:43:04.203Z,11.65
2022-11-09T06:45:31.073Z,11.63
2022-11-09T06:47:59.354Z,11.66
2022-11-09T06:50:26.772Z,11.62
2022-11-09T06:53:01.398Z,11.62
2022-11-09T06:55:29.398Z,11.64
2022-11-09T06:57:56.239Z,11.61
2022-11-09T07:00:24.307Z,11.62
2022-11-09T07:02:51.252Z,11.64
2022-11-09T07:05:17.979Z,11.65
2022-11-09T07:07:44.456Z,11.65
2022-11-09T07:10:11.704Z,11.63
2022-11-09T07:12:38.018Z,11.65
2022-11-09T07:15:05.895Z,11.69
2022-11-09T07:17:33.328Z,11.69
2022-11-09T07:20:00.245Z,11.67
2022-11-09T07:22:29.548Z,11.71
2022-11-09T07:24:55.915Z,11.76
2022-11-09T07:27:27.500Z,11.74
2022-11-09T07:29:54.538Z,11.68
2022-11-09T07:32:24.596Z,11.62
2022-11-09T07:35:02.174Z,11.70
2022-11-09T07:37:28.649Z,11.70
2022-11-09T07:39:54.971Z,11.70
2022-11-09T07:42:21.355Z,11.76
2022-11-09T07:44:47.651Z,11.78
2022-11-09T07:47:18.183Z,11.77
2022-11-09T07:49:45.171Z,11.76
2022-11-09T07:52:12.002Z,11.75
2022-11-09T07:54:39.401Z,11.74
2022-11-09T07:57:06.554Z,11.81
2022-11-09T07:59:33.288Z,11.80
2022-11-09T08:01:59.699Z,11.79
2022-11-09T08:04:26.138Z,11.76
2022-11-09T08:06:53.258Z,11.80
2022-11-09T08:09:19.916Z,11.83
2022-11-09T08:11:46.368Z,11.78
2022-11-09T08:14:12.738Z,11.84
2022-11-09T08:16:39.364Z,11.86
2022-11-09T08:19:05.724Z,11.93
2022-11-09T08:21:32.115Z,11.95
2022-11-09T08:23:58.443Z,11.89
2022-11-09T08:26:24.752Z,11.89
2022-11-09T08:28:51.065Z,11.92
2022-11-09T08:31:17.374Z,11.94
2022-11-09T08:33:43.669Z,11.93
2022-11-09T08:36:15.732Z,11.93
2022-11-09T08:38:43.467Z,11.97
2022-11-09T08:41:13.572Z,12.01
2022-11-09T08:43:40.375Z,11.98
2022-11-09T08:46:06.751Z,11.99
2022-11-09T08:48:33.112Z,11.97
2022-11-09T08:51:00.047Z,11.97
2022-11-09T08:53:27.984Z,12.03
2022-11-09T08:55:54.416Z,12.04
2022-11-09T08:58:22.458Z,12.08
2022-11-09T09:00:49.063Z,12.14
2022-11-09T09:03:15.399Z,12.20
2022-11-09T09:05:41.758Z,12.20
2022-11-09T09:08:08.231Z,12.24
2022-11-09T09:10:38.012Z,12.24
2022-11-09T09:13:04.833Z,12.28
2022-11-09T09:15:31.809Z,12.33
2022-11-09T09:18:02.375Z,12.33
2022-11-09T09:20:29.233Z,12.42
2022-11-09T09:22:59.515Z,12.43
2022-11-09T09:25:26.845Z,12.48
2022-11-09T09:27:53.154Z,12.49
2022-11-09T09:30:19.660Z,12.52
2022-11-09T09:32:45.978Z,12.56
2022-11-09T09:35:12.806Z,12.55
2022-11-09T09:37:39.187Z,12.52
2022-11-09T09:40:06.340Z,12.55
2022-11-09T09:42:41.844Z,12.58
2022-11-09T09:45:18.189Z,12.63
2022-11-09T09:48:03.803Z,12.66
2022-11-09T09:50:37.999Z,12.69
2022-11-09T09:53:24.729Z,12.75
2022-11-09T09:56:26.767Z,12.76
2022-11-09T09:59:02.916Z,12.79
2022-11-09T10:01:37.590Z,12.75
2022-11-09T10:04:15.310Z,12.73
2022-11-09T10:07:03.732Z,12.70
2022-11-09T10:09:45.526Z,12.87
2022-11-09T10:12:36.989Z,13.14
2022-11-09T10:15:11.955Z,13.48
2022-11-09T10:17:41.411Z,13.61
2022-11-09T10:20:26.107Z,13.57
2022-11-09T10:23:13.019Z,13.65
2022-11-09T10:26:03.017Z,13.83
2022-11-09T10:28:47.671Z,14.20
2022-11-09T10:31:21.968Z,14.62
2022-11-09T10:33:57.389Z,14.67
2022-11-09T10:36:26.702Z,14.55
2022-11-09T10:38:58.895Z,14.76
2022-11-09T10:41:41.042Z,14.78
2022-11-09T10:44:18.293Z,14.61
2022-11-09T10:47:07.989Z,14.67
2022-11-09T10:49:36.278Z,14.86
2022-11-09T10:52:03.431Z,14.83
2022-11-09T10:54:37.564Z,14.90
2022-11-09T10:57:20.390Z,14.81
2022-11-09T10:59:54.611Z,14.65
2022-11-09T11:02:26.707Z,14.56
2022-11-09T11:05:23.850Z,14.46
2022-11-09T11:07:50.424Z,14.44
2022-11-09T11:10:16.850Z,14.47
2022-11-09T11:12:46.530Z,14.43
2022-11-09T11:15:38.550Z,14.42
2022-11-09T11:18:15.067Z,14.28
2022-11-09T11:20:41.445Z,14.30
2022-11-09T11:23:19.935Z,14.26
2022-11-09T11:25:59.563Z,14.27
2022-11-09T11:28:39.873Z,14.26
2022-11-09T11:31:18.235Z,14.29
2022-11-09T11:33:45.183Z,14.48
2022-11-09T11:36:19.428Z,14.52
2022-11-09T11:38:57.349Z,14.55
2022-11-09T11:41:45.431Z,14.51
2022-11-09T11:45:02.949Z,14.52
2022-11-09T11:47:58.218Z,14.54
2022-11-09T11:50:46.558Z,14.51
2022-11-09T11:53:25.325Z,14.58
2022-11-09T11:56:13.219Z,14.54
2022-11-09T11:59:03.320Z,14.49
2022-11-09T12:01:35.846Z,14.51
2022-11-09T12:04:30.987Z,14.50
2022-11-09T12:07:35.356Z,14.55
2022-11-09T12:10:20.988Z,14.55
2022-11-09T12:13:31.467Z,14.57
2022-11-09T12:16:07.580Z,14.62
2022-11-09T12:19:10.590Z,14.65
2022-11-09T12:21:54.130Z,14.65
2022-11-09T12:24:31.585Z,14.73
2022-11-09T12:27:32.305Z,14.78
2022-11-09T12:30:22.209Z,14.89
2022-11-09T12:33:12.378Z,14.94
2022-11-09T12:35:50.770Z,14.97
2022-11-09T12:38:21.710Z,14.91
2022-11-09T12:40:58.404Z,14.97
2022-11-09T12:43:44.968Z,14.95
2022-11-09T12:46:14.661Z,14.94
2022-11-09T12:48:41.010Z,14.97
2022-11-09T12:51:08.485Z,14.95
2022-11-09T12:53:36.951Z,14.94
2022-11-09T12:56:17.250Z,14.94
2022-11-09T12:58:44.213Z,14.90
2022-11-09T13:01:13.023Z,14.84
2022-11-09T13:03:58.584Z,14.78
2022-11-09T13:06:28.904Z,14.76
2022-11-09T13:08:59.483Z,14.75
2022-11-09T13:11:35.745Z,14.72
2022-11-09T13:14:25.948Z,14.71
2022-11-09T13:16:55.723Z,14.68
2022-11-09T13:19:34.180Z,14.67
2022-11-09T13:22:02.238Z,14.75
2022-11-09T13:24:31.271Z,14.76
2022-11-09T13:27:02.646Z,14.71
2022-11-09T13:29:41.134Z,14.70
2022-11-09T13:32:10.691Z,14.59
2022-11-09T13:34:43.099Z,14.57
2022-11-09T13:37:34.258Z,14.54
2022-11-09T13:40:00.623Z,14.57
2022-11-09T13:42:33.553Z,14.60
2022-11-09T13:45:24.727Z,14.61
2022-11-09T13:47:52.085Z,14.58
2022-11-09T13:50:22.003Z,14.50
2022-11-09T13:52:53.507Z,14.53
2022-11-09T13:55:37.972Z,14.48
2022-11-09T13:58:18.594Z,14.46
2022-11-09T14:00:47.259Z,14.32
2022-11-09T14:03:26.338Z,14.13
2022-11-09T14:05:57.315Z,14.00
2022-11-09T14:08:27.767Z,13.80
2022-11-09T14:11:19.490Z,13.56
2022-11-09T14:14:12.620Z,13.49
2022-11-09T14:17:04.163Z,13.39
2022-11-09T14:20:04.855Z,13.28
2022-11-09T14:22:35.824Z,13.20
2022-11-09T14:25:20.840Z,13.24
2022-11-09T14:27:57.137Z,13.21
2022-11-09T14:30:25.226Z,13.23
2022-11-09T14:32:56.330Z,13.16
2022-11-09T14:35:25.039Z,13.18
2022-11-09T14:37:54.490Z,13.20
2022-11-09T14:40:28.975Z,13.16
2022-11-09T14:42:55.321Z,13.14
2022-11-09T14:45:22.712Z,13.16
2022-11-09T14:47:52.120Z,13.11
2022-11-09T14:50:23.467Z,13.13
2022-11-09T14:52:52.723Z,13.10
2022-11-09T14:55:21.237Z,13.10
2022-11-09T14:57:49.725Z,13.08
2022-11-09T15:00:35.030Z,13.08
2022-11-09T15:03:22.463Z,13.09
2022-11-09T15:05:48.845Z,13.03
2022-11-09T15:08:22.499Z,12.98
2022-11-09T15:10:52.586Z,13.05
2022-11-09T15:13:27.787Z,12.99
2022-11-09T15:15:54.846Z,13.02
2022-11-09T15:18:33.905Z,13.00
2022-11-09T15:21:25.541Z,13.10
2022-11-09T15:24:03.701Z,13.03
2022-11-09T15:26:44.782Z,13.04
2022-11-09T15:29:34.819Z,13.02
2022-11-09T15:32:17.808Z,13.05
2022-11-09T15:34:56.205Z,13.01
2022-11-09T15:37:27.948Z,13.00
2022-11-09T15:39:54.238Z,12.92
2022-11-09T15:42:21.224Z,12.96
2022-11-09T15:44:55.429Z,12.96
2022-11-09T15:47:33.765Z,12.99
2022-11-09T15:50:03.563Z,12.98
2022-11-09T15:52:30.215Z,12.88
2022-11-09T15:54:56.842Z,12.93
2022-11-09T15:57:23.201Z,12.87
2022-11-09T15:59:51.275Z,12.85
2022-11-09T16:02:19.098Z,12.84
2022-11-09T16:04:45.419Z,12.79
2022-11-09T16:07:14.927Z,12.77
2022-11-09T16:09:41.990Z,12.77
2022-11-09T16:12:08.814Z,12.74
2022-11-09T16:14:35.550Z,12.73
2022-11-09T16:17:02.140Z,12.67
2022-11-09T16:19:28.544Z,12.64
2022-11-09T16:21:54.898Z,12.64
2022-11-09T16:24:21.387Z,12.62
2022-11-09T16:26:47.829Z,12.51
2022-11-09T16:29:14.152Z,12.55
2022-11-09T16:31:51.540Z,12.49
2022-11-09T16:34:18.923Z,12.45
2022-11-09T16:36:50.917Z,12.41
2022-11-09T16:39:20.506Z,12.38
2022-11-09T16:41:50.015Z,12.35
2022-11-09T16:44:19.969Z,12.29
2022-11-09T16:46:47.879Z,12.34
2022-11-09T16:49:17.823Z,12.31
2022-11-09T16:51:44.277Z,12.30
2022-11-09T16:54:10.641Z,12.23
2022-11-09T16:56:36.963Z,12.19
2022-11-09T16:59:03.474Z,12.17
2022-11-09T17:01:29.819Z,12.23
2022-11-09T17:03:57.451Z,12.28
2022-11-09T17:06:24.141Z,12.39
2022-11-09T17:08:51.052Z,12.35
2022-11-09T17:11:17.626Z,12.32
2022-11-09T17:13:44.094Z,12.32
2022-11-09T17:16:12.620Z,12.31
2022-11-09T17:18:39.490Z,12.29
2022-11-09T17:21:10.838Z,12.22
2022-11-09T17:23:37.636Z,12.16
2022-11-09T17:26:05.574Z,12.18
2022-11-09T17:28:32.308Z,12.12
2022-11-09T17:30:59.032Z,12.18
2022-11-09T17:33:25.347Z,12.22
2022-11-09T17:35:59.747Z,12.18
2022-11-09T17:38:26.419Z,12.13
2022-11-09T17:40:54.316Z,12.11
2022-11-09T17:43:20.744Z,12.13
2022-11-09T17:45:47.022Z,12.14
2022-11-09T17:48:13.347Z,12.22
2022-11-09T17:50:39.699Z,12.20
2022-11-09T17:53:05.992Z,12.15
2022-11-09T17:55:32.288Z,12.11
2022-11-09T17:57:58.592Z,12.09
2022-11-09T18:00:25.062Z,12.07
2022-11-09T18:02:55.379Z,12.08
2022-11-09T18:05:21.678Z,12.07
2022-11-09T18:07:47.987Z,12.00
2022-11-09T18:10:14.339Z,12.00
2022-11-09T18:12:40.619Z,11.98
2022-11-09T18:15:07.212Z,11.96
2022-11-09T18:17:33.630Z,11.95
2022-11-09T18:19:59.921Z,11.97
2022-11-09T18:22:26.206Z,11.93
2022-11-09T18:24:52.569Z,11.93
2022-11-09T18:27:18.897Z,11.92
2022-11-09T18:29:45.193Z,11.90
2022-11-09T18:32:11.519Z,11.92
2022-11-09T18:34:37.834Z,11.90
2022-11-09T18:37:04.161Z,11.95
2022-11-09T18:39:30.810Z,11.92
2022-11-09T18:42:00.165Z,11.87
2022-11-09T18:44:26.458Z,11.84
2022-11-09T18:46:52.744Z,11.81
2022-11-09T18:49:19.944Z,11.80
2022-11-09T18:51:46.260Z,11.81
2022-11-09T18:54:12.592Z,11.80
2022-11-09T18:56:39.023Z,11.79
2022-11-09T18:59:05.567Z,11.78
2022-11-09T19:01:31.909Z,11.78
2022-11-09T19:04:01.520Z,11.73
2022-11-09T19:06:28.248Z,11.77
2022-11-09T19:09:13.564Z,11.59
2022-11-09T19:11:39.979Z,11.68
2022-11-09T19:14:06.309Z,11.66
2022-11-09T19:16:32.762Z,11.63
2022-11-09T19:18:59.070Z,11.56
2022-11-09T19:21:25.828Z,11.52
2022-11-09T19:23:52.798Z,11.48
2022-11-09T19:26:19.967Z,11.49
2022-11-09T19:28:46.341Z,11.48
2022-11-09T19:31:14.710Z,11.59
2022-11-09T19:33:41.016Z,11.62
2022-11-09T19:36:29.095Z,11.49
2022-11-09T19:38:55.662Z,11.45
2022-11-09T19:41:22.160Z,11.33
2022-11-09T19:43:49.671Z,11.33
2022-11-09T19:46:16.651Z,11.28
2022-11-09T19:48:47.557Z,11.33
2022-11-09T19:51:16.483Z,11.27
2022-11-09T19:53:48.581Z,11.33
2022-11-09T19:56:14.862Z,11.25
2022-11-09T19:58:41.227Z,11.25
2022-11-09T20:01:11.560Z,11.28
2022-11-09T20:03:38.175Z,11.28
2022-11-09T20:06:06.659Z,11.22
2022-11-09T20:08:34.695Z,11.22
2022-11-09T20:11:06.575Z,11.22
2022-11-09T20:13:33.526Z,11.18
2022-11-09T20:16:05.326Z,11.15
2022-11-09T20:18:35.282Z,11.08
2022-11-09T20:21:02.145Z,11.04
2022-11-09T20:23:28.502Z,11.08
2022-11-09T20:26:09.534Z,10.99
2022-11-09T20:28:35.875Z,10.98
2022-11-09T20:31:09.260Z,10.93
2022-11-09T20:33:35.562Z,10.93
2022-11-09T20:36:01.830Z,10.89
2022-11-09T20:38:28.210Z,10.87
2022-11-09T20:40:56.010Z,10.89
2022-11-09T20:43:23.487Z,10.85
2022-11-09T20:45:50.633Z,10.95
2022-11-09T20:48:38.707Z,10.98
2022-11-09T20:51:05.350Z,10.94
2022-11-09T20:53:31.963Z,10.99
2022-11-09T20:55:58.338Z,10.92
2022-11-09T20:58:26.831Z,10.96
2022-11-09T21:01:20.435Z,11.00
2022-11-09T21:03:48.725Z,10.99
2022-11-09T21:06:15.192Z,10.87
2022-11-09T21:08:52.540Z,10.92
2022-11-09T21:11:19.711Z,10.91
2022-11-09T21:13:53.676Z,10.85
2022-11-09T21:16:21.566Z,10.92
2022-11-09T21:18:48.669Z,10.74
2022-11-09T21:21:20.323Z,10.69
2022-11-09T21:24:05.484Z,10.60
2022-11-09T21:26:50.740Z,10.60
2022-11-09T21:29:41.029Z,10.54
2022-11-09T21:32:08.228Z,10.45
2022-11-09T21:34:37.036Z,10.42
2022-11-09T21:37:04.852Z,10.39
2022-11-09T21:39:31.333Z,10.36
2022-11-09T21:41:57.636Z,10.28
2022-11-09T21:44:24.345Z,10.25
2022-11-09T21:46:50.660Z,10.22
2022-11-09T21:49:16.930Z,10.14
2022-11-09T21:51:43.338Z,10.14
2022-11-09T21:54:10.379Z,10.14
2022-11-09T21:56:36.875Z,10.09
2022-11-09T21:59:04.157Z,10.06
2022-11-09T22:01:30.533Z,10.04
2022-11-09T22:03:57.016Z,9.86
2022-11-09T22:06:23.589Z,9.89
2022-11-09T22:08:51.397Z,9.83
2022-11-09T22:11:20.031Z,9.79
2022-11-09T22:14:04.842Z,9.72
2022-11-09T22:16:33.812Z,9.73
2022-11-09T22:19:22.037Z,9.78
2022-11-09T22:21:48.342Z,9.64
2022-11-09T22:24:14.662Z,9.68
2022-11-09T22:26:40.970Z,9.64
2022-11-09T22:29:07.356Z,9.66
2022-11-09T22:31:33.686Z,9.61
2022-11-09T22:34:00.049Z,9.61
2022-11-09T22:36:26.360Z,9.56
2022-11-09T22:38:52.678Z,9.59
2022-11-09T22:41:19.488Z,9.52
2022-11-09T22:43:45.849Z,9.52
2022-11-09T22:46:14.842Z,9.52
2022-11-09T22:48:43.120Z,9.47
2022-11-09T22:51:11.910Z,9.45
2022-11-09T22:53:38.399Z,9.44
2022-11-09T22:56:05.585Z,9.44
2022-11-09T22:58:32.030Z,9.43
2022-11-09T23:01:16.984Z,9.29
2022-11-09T23:03:43.358Z,9.32
2022-11-09T23:06:13.127Z,9.31
2022-11-09T23:08:39.472Z,9.28
2022-11-09T23:11:14.563Z,9.26
2022-11-09T23:13:41.444Z,9.26
2022-11-09T23:16:10.360Z,9.26
2022-11-09T23:18:55.987Z,9.25
2022-11-09T23:21:33.526Z,9.22
2022-11-09T23:24:04.933Z,9.20
2022-11-09T23:26:32.772Z,9.20
2022-11-09T23:28:59.931Z,9.16
2022-11-09T23:31:26.894Z,9.16
2022-11-09T23:33:57.385Z,9.12
2022-11-09T23:36:25.738Z,9.09
2022-11-09T23:38:52.164Z,9.12
2022-11-09T23:41:19.028Z,9.02
2022-11-09T23:43:49.333Z,8.95
2022-11-09T23:46:16.991Z,8.96
2022-11-09T23:48:43.337Z,8.93
2022-11-09T23:51:10.238Z,8.88
2022-11-09T23:53:36.699Z,8.92
2022-11-09T23:56:08.765Z,8.83
2022-11-09T23:58:35.146Z,8.69
